Cold Bay, AK

8:21 AM AKDT on July 28, 2016 (GMT -0800)
Cold Bay | | Change Station

Elev 102 ft 55.22 °N, 162.73 °W | Updated 7 minutes ago

Fog
Fog
47 °F
Feels Like 47 °F
N
5
Wind Variable Wind from NW

Today
High -- | Low -- °F
--% Chance of Precip.
Yesterday
High -- | Low -- °F
Precip. -- in
Pressure 30.00 in
Visibility 0.5 miles
Clouds Clear
Dew Point 47 °F
Humidity 100%
Rainfall 0.00 in
Snow Depth Not available.
6:53 AM 11:00 PM
Waning Crescent, 31% visible
SPECI PACD 281614Z AUTO 31004KT 1/2SM FG CLR 08/08 A3000 RMK AO2 T00830083 TSNO
Pressure 30.00 in
Visibility 0.5 miles
Clouds Clear
Dew Point 47 °F
Humidity 100%
Rainfall 0.00 in
Snow Depth Not available.
6:53 AM 11:00 PM
Waning Crescent, 31% visible
SPECI PACD 281614Z AUTO 31004KT 1/2SM FG CLR 08/08 A3000 RMK AO2 T00830083 TSNO

10-Day Weather Forecast

Almanac

Astronomy

Jul. 28, 2016 Rise Set
Actual Time
Civil Twilight
Nautical Twilight
Astronomical Twilight
Moon
Length of Visible Light
Length of Day
Tomorrow will be .
, % of the Moon is Illuminated

Today's Extremes

State Highs State Lows

Community

WunderPhotos

Upload Photos

1,928,146 photos uploaded!

WunderBlog® & News

Nearby

Air Quality

  Air Quality AQ Index Pollutant
Not available.

Snow Depth

Station Depth Elevation

Earthquake Activity

City Distance Mag. Time & Date
Minimum magnitude displayed is 2.5.

Coastal Water Temperatures

Place Temperature

Stations

Nearby Weather Stations

Station Location Temp. Windchill Dew Point Humidity Wind Precip. Elev Updated Type
                   

Watches & Warnings

There are currently no watches in effect.